sensor_id;sensor_type;location;lat;lon;timestamp;P1;durP1;ratioP1;P2;durP2;ratioP2
75016;SDS011;63577;39.766;2.720;2023-12-07T00:01:03;7.50;;;3.70;;
75016;SDS011;63577;39.766;2.720;2023-12-07T00:03:29;7.00;;;4.20;;
75016;SDS011;63577;39.766;2.720;2023-12-07T00:05:54;15.60;;;9.80;;
75016;SDS011;63577;39.766;2.720;2023-12-07T00:08:19;12.30;;;7.10;;
75016;SDS011;63577;39.766;2.720;2023-12-07T00:10:45;7.00;;;3.30;;
75016;SDS011;63577;39.766;2.720;2023-12-07T00:13:10;5.20;;;2.60;;
75016;SDS011;63577;39.766;2.720;2023-12-07T00:15:36;6.20;;;2.60;;
75016;SDS011;63577;39.766;2.720;2023-12-07T00:18:02;5.30;;;2.80;;
75016;SDS011;63577;39.766;2.720;2023-12-07T00:20:28;6.60;;;2.80;;
75016;SDS011;63577;39.766;2.720;2023-12-07T00:22:53;5.10;;;2.10;;
75016;SDS011;63577;39.766;2.720;2023-12-07T00:25:19;6.30;;;2.10;;
75016;SDS011;63577;39.766;2.720;2023-12-07T00:27:44;5.90;;;2.00;;
75016;SDS011;63577;39.766;2.720;2023-12-07T00:30:10;5.20;;;2.10;;
75016;SDS011;63577;39.766;2.720;2023-12-07T00:32:36;5.90;;;1.80;;
75016;SDS011;63577;39.766;2.720;2023-12-07T00:35:01;6.90;;;2.60;;
75016;SDS011;63577;39.766;2.720;2023-12-07T00:37:26;8.10;;;2.90;;
75016;SDS011;63577;39.766;2.720;2023-12-07T00:39:52;10.70;;;4.90;;
75016;SDS011;63577;39.766;2.720;2023-12-07T00:42:17;9.50;;;4.40;;
75016;SDS011;63577;39.766;2.720;2023-12-07T00:44:43;7.90;;;3.40;;
75016;SDS011;63577;39.766;2.720;2023-12-07T00:47:08;9.30;;;3.80;;
75016;SDS011;63577;39.766;2.720;2023-12-07T00:49:37;8.50;;;3.30;;
75016;SDS011;63577;39.766;2.720;2023-12-07T00:52:02;10.10;;;3.80;;
75016;SDS011;63577;39.766;2.720;2023-12-07T00:54:28;8.90;;;3.60;;
75016;SDS011;63577;39.766;2.720;2023-12-07T00:56:53;8.60;;;3.60;;
75016;SDS011;63577;39.766;2.720;2023-12-07T00:59:18;10.60;;;3.90;;
75016;SDS011;63577;39.766;2.720;2023-12-07T01:01:44;8.80;;;4.10;;
75016;SDS011;63577;39.766;2.720;2023-12-07T01:04:09;9.20;;;4.30;;
75016;SDS011;63577;39.766;2.720;2023-12-07T01:06:34;7.20;;;3.80;;
75016;SDS011;63577;39.766;2.720;2023-12-07T01:09:00;7.80;;;3.50;;
75016;SDS011;63577;39.766;2.720;2023-12-07T01:11:25;5.70;;;2.60;;
75016;SDS011;63577;39.766;2.720;2023-12-07T01:13:50;5.70;;;2.40;;
75016;SDS011;63577;39.766;2.720;2023-12-07T01:16:16;6.10;;;2.10;;
75016;SDS011;63577;39.766;2.720;2023-12-07T01:18:41;5.00;;;1.50;;
75016;SDS011;63577;39.766;2.720;2023-12-07T01:21:06;5.20;;;1.70;;
75016;SDS011;63577;39.766;2.720;2023-12-07T01:23:32;5.10;;;1.70;;
75016;SDS011;63577;39.766;2.720;2023-12-07T01:25:57;5.40;;;1.70;;
75016;SDS011;63577;39.766;2.720;2023-12-07T01:28:22;5.60;;;1.70;;
75016;SDS011;63577;39.766;2.720;2023-12-07T01:30:48;4.40;;;1.50;;
75016;SDS011;63577;39.766;2.720;2023-12-07T01:33:13;4.70;;;1.30;;
75016;SDS011;63577;39.766;2.720;2023-12-07T01:35:39;3.40;;;1.30;;
75016;SDS011;63577;39.766;2.720;2023-12-07T01:38:04;4.10;;;1.40;;
75016;SDS011;63577;39.766;2.720;2023-12-07T01:40:29;4.50;;;1.40;;
75016;SDS011;63577;39.766;2.720;2023-12-07T01:42:55;4.40;;;1.50;;
75016;SDS011;63577;39.766;2.720;2023-12-07T01:45:20;4.40;;;1.70;;
75016;SDS011;63577;39.766;2.720;2023-12-07T01:47:46;3.40;;;1.30;;
75016;SDS011;63577;39.766;2.720;2023-12-07T01:50:11;4.10;;;1.60;;
75016;SDS011;63577;39.766;2.720;2023-12-07T01:52:40;5.70;;;1.90;;
75016;SDS011;63577;39.766;2.720;2023-12-07T01:55:08;5.50;;;2.00;;
75016;SDS011;63577;39.766;2.720;2023-12-07T01:57:34;4.70;;;1.60;;
75016;SDS011;63577;39.766;2.720;2023-12-07T02:00:00;6.20;;;2.10;;
75016;SDS011;63577;39.766;2.720;2023-12-07T02:02:26;5.20;;;2.00;;
75016;SDS011;63577;39.766;2.720;2023-12-07T02:04:51;5.30;;;1.80;;
75016;SDS011;63577;39.766;2.720;2023-12-07T02:07:17;8.60;;;2.80;;
75016;SDS011;63577;39.766;2.720;2023-12-07T02:09:42;6.80;;;3.10;;
75016;SDS011;63577;39.766;2.720;2023-12-07T02:12:08;7.60;;;3.00;;
75016;SDS011;63577;39.766;2.720;2023-12-07T02:14:33;7.30;;;3.50;;
75016;SDS011;63577;39.766;2.720;2023-12-07T02:17:01;7.00;;;3.40;;
75016;SDS011;63577;39.766;2.720;2023-12-07T02:19:36;8.90;;;3.80;;
75016;SDS011;63577;39.766;2.720;2023-12-07T02:22:12;6.30;;;3.10;;
75016;SDS011;63577;39.766;2.720;2023-12-07T02:24:41;7.40;;;3.00;;
75016;SDS011;63577;39.766;2.720;2023-12-07T02:27:11;5.00;;;2.10;;
75016;SDS011;63577;39.766;2.720;2023-12-07T02:29:37;5.40;;;2.00;;
75016;SDS011;63577;39.766;2.720;2023-12-07T02:32:03;5.20;;;1.90;;
75016;SDS011;63577;39.766;2.720;2023-12-07T02:34:28;4.90;;;1.80;;
75016;SDS011;63577;39.766;2.720;2023-12-07T02:36:54;4.20;;;1.60;;
75016;SDS011;63577;39.766;2.720;2023-12-07T02:39:21;16.90;;;8.60;;
75016;SDS011;63577;39.766;2.720;2023-12-07T02:41:48;5.80;;;2.80;;
75016;SDS011;63577;39.766;2.720;2023-12-07T02:44:14;6.70;;;2.20;;
75016;SDS011;63577;39.766;2.720;2023-12-07T02:46:39;4.60;;;1.90;;
75016;SDS011;63577;39.766;2.720;2023-12-07T02:49:05;5.30;;;2.10;;
75016;SDS011;63577;39.766;2.720;2023-12-07T02:51:30;5.30;;;2.30;;
75016;SDS011;63577;39.766;2.720;2023-12-07T02:53:55;14.80;;;7.90;;
75016;SDS011;63577;39.766;2.720;2023-12-07T02:56:21;6.80;;;2.60;;
75016;SDS011;63577;39.766;2.720;2023-12-07T02:58:46;6.40;;;2.70;;
75016;SDS011;63577;39.766;2.720;2023-12-07T03:01:11;5.30;;;2.10;;
75016;SDS011;63577;39.766;2.720;2023-12-07T03:03:37;4.70;;;1.60;;
75016;SDS011;63577;39.766;2.720;2023-12-07T03:06:03;5.60;;;1.40;;
75016;SDS011;63577;39.766;2.720;2023-12-07T03:08:29;5.20;;;1.90;;
75016;SDS011;63577;39.766;2.720;2023-12-07T03:10:54;4.60;;;1.60;;
75016;SDS011;63577;39.766;2.720;2023-12-07T03:13:20;4.40;;;1.50;;
75016;SDS011;63577;39.766;2.720;2023-12-07T03:15:45;5.00;;;1.80;;
75016;SDS011;63577;39.766;2.720;2023-12-07T03:18:10;4.10;;;1.20;;
75016;SDS011;63577;39.766;2.720;2023-12-07T03:20:36;3.90;;;1.30;;
75016;SDS011;63577;39.766;2.720;2023-12-07T03:23:01;3.80;;;1.10;;
75016;SDS011;63577;39.766;2.720;2023-12-07T03:25:26;4.70;;;1.00;;
75016;SDS011;63577;39.766;2.720;2023-12-07T03:27:52;2.60;;;0.80;;
75016;SDS011;63577;39.766;2.720;2023-12-07T03:30:17;2.80;;;0.80;;
75016;SDS011;63577;39.766;2.720;2023-12-07T03:32:42;4.10;;;0.90;;
75016;SDS011;63577;39.766;2.720;2023-12-07T03:35:08;3.30;;;0.80;;
75016;SDS011;63577;39.766;2.720;2023-12-07T03:37:33;2.90;;;0.70;;
75016;SDS011;63577;39.766;2.720;2023-12-07T03:39:58;2.70;;;0.90;;
75016;SDS011;63577;39.766;2.720;2023-12-07T03:42:24;3.30;;;1.20;;
75016;SDS011;63577;39.766;2.720;2023-12-07T03:44:49;2.40;;;0.80;;
75016;SDS011;63577;39.766;2.720;2023-12-07T03:47:15;2.60;;;0.70;;
75016;SDS011;63577;39.766;2.720;2023-12-07T03:49:40;2.30;;;0.80;;
75016;SDS011;63577;39.766;2.720;2023-12-07T03:52:06;2.60;;;0.80;;
75016;SDS011;63577;39.766;2.720;2023-12-07T03:54:32;2.90;;;0.70;;
75016;SDS011;63577;39.766;2.720;2023-12-07T03:56:57;2.70;;;0.70;;
75016;SDS011;63577;39.766;2.720;2023-12-07T03:59:23;2.70;;;0.80;;
75016;SDS011;63577;39.766;2.720;2023-12-07T04:01:48;2.30;;;0.80;;
75016;SDS011;63577;39.766;2.720;2023-12-07T04:04:13;3.30;;;1.10;;
75016;SDS011;63577;39.766;2.720;2023-12-07T04:06:39;4.00;;;1.00;;
75016;SDS011;63577;39.766;2.720;2023-12-07T04:09:04;5.20;;;1.60;;
75016;SDS011;63577;39.766;2.720;2023-12-07T04:11:29;3.20;;;1.10;;
75016;SDS011;63577;39.766;2.720;2023-12-07T04:13:55;6.50;;;2.60;;
75016;SDS011;63577;39.766;2.720;2023-12-07T04:16:20;4.60;;;2.10;;
75016;SDS011;63577;39.766;2.720;2023-12-07T04:18:46;3.70;;;1.40;;
75016;SDS011;63577;39.766;2.720;2023-12-07T04:21:11;3.60;;;1.40;;
75016;SDS011;63577;39.766;2.720;2023-12-07T04:23:37;3.80;;;1.10;;
75016;SDS011;63577;39.766;2.720;2023-12-07T04:26:02;2.90;;;0.70;;
75016;SDS011;63577;39.766;2.720;2023-12-07T04:28:27;2.50;;;0.80;;
75016;SDS011;63577;39.766;2.720;2023-12-07T04:30:53;2.50;;;0.80;;
75016;SDS011;63577;39.766;2.720;2023-12-07T04:33:18;3.50;;;0.70;;
75016;SDS011;63577;39.766;2.720;2023-12-07T04:35:44;3.80;;;1.10;;
75016;SDS011;63577;39.766;2.720;2023-12-07T04:38:09;4.40;;;1.60;;
75016;SDS011;63577;39.766;2.720;2023-12-07T04:40:35;5.80;;;2.80;;
75016;SDS011;63577;39.766;2.720;2023-12-07T04:43:00;4.80;;;2.50;;
75016;SDS011;63577;39.766;2.720;2023-12-07T04:45:26;3.60;;;1.50;;
75016;SDS011;63577;39.766;2.720;2023-12-07T04:47:51;3.50;;;1.30;;
75016;SDS011;63577;39.766;2.720;2023-12-07T04:50:16;4.90;;;1.40;;
75016;SDS011;63577;39.766;2.720;2023-12-07T04:52:42;3.20;;;1.30;;
75016;SDS011;63577;39.766;2.720;2023-12-07T04:55:07;2.40;;;0.70;;
75016;SDS011;63577;39.766;2.720;2023-12-07T04:57:33;2.40;;;0.60;;
75016;SDS011;63577;39.766;2.720;2023-12-07T04:59:59;2.70;;;0.70;;
75016;SDS011;63577;39.766;2.720;2023-12-07T05:02:24;1.90;;;0.50;;
75016;SDS011;63577;39.766;2.720;2023-12-07T05:04:50;1.90;;;0.60;;
75016;SDS011;63577;39.766;2.720;2023-12-07T05:07:15;3.20;;;1.00;;
75016;SDS011;63577;39.766;2.720;2023-12-07T05:09:41;3.70;;;1.20;;
75016;SDS011;63577;39.766;2.720;2023-12-07T05:12:06;4.80;;;1.80;;
75016;SDS011;63577;39.766;2.720;2023-12-07T05:14:32;3.90;;;1.40;;
75016;SDS011;63577;39.766;2.720;2023-12-07T05:16:57;3.50;;;1.10;;
75016;SDS011;63577;39.766;2.720;2023-12-07T05:19:23;5.00;;;1.70;;
75016;SDS011;63577;39.766;2.720;2023-12-07T05:21:48;2.90;;;0.90;;
75016;SDS011;63577;39.766;2.720;2023-12-07T05:24:14;3.30;;;0.90;;
75016;SDS011;63577;39.766;2.720;2023-12-07T05:26:41;3.00;;;0.80;;
75016;SDS011;63577;39.766;2.720;2023-12-07T05:29:06;2.10;;;0.60;;
75016;SDS011;63577;39.766;2.720;2023-12-07T05:31:31;2.90;;;0.80;;
75016;SDS011;63577;39.766;2.720;2023-12-07T05:33:57;2.70;;;1.10;;
75016;SDS011;63577;39.766;2.720;2023-12-07T05:36:22;7.90;;;2.90;;
75016;SDS011;63577;39.766;2.720;2023-12-07T05:38:48;4.20;;;1.80;;
75016;SDS011;63577;39.766;2.720;2023-12-07T05:41:13;5.60;;;2.10;;
75016;SDS011;63577;39.766;2.720;2023-12-07T05:43:42;4.00;;;1.40;;
75016;SDS011;63577;39.766;2.720;2023-12-07T05:46:07;3.30;;;1.00;;
75016;SDS011;63577;39.766;2.720;2023-12-07T05:48:33;6.90;;;3.10;;
75016;SDS011;63577;39.766;2.720;2023-12-07T05:50:58;9.60;;;5.00;;
75016;SDS011;63577;39.766;2.720;2023-12-07T05:53:23;6.40;;;2.70;;
75016;SDS011;63577;39.766;2.720;2023-12-07T05:55:49;4.70;;;2.00;;
75016;SDS011;63577;39.766;2.720;2023-12-07T05:58:15;5.00;;;2.60;;
75016;SDS011;63577;39.766;2.720;2023-12-07T06:00:42;10.20;;;5.20;;
75016;SDS011;63577;39.766;2.720;2023-12-07T06:03:08;7.00;;;3.30;;
75016;SDS011;63577;39.766;2.720;2023-12-07T06:05:37;6.10;;;2.80;;
75016;SDS011;63577;39.766;2.720;2023-12-07T06:08:02;10.30;;;6.20;;
75016;SDS011;63577;39.766;2.720;2023-12-07T06:10:29;10.20;;;5.80;;
75016;SDS011;63577;39.766;2.720;2023-12-07T06:12:54;6.50;;;3.20;;
75016;SDS011;63577;39.766;2.720;2023-12-07T06:15:21;6.30;;;2.70;;
75016;SDS011;63577;39.766;2.720;2023-12-07T06:17:47;8.00;;;4.00;;
75016;SDS011;63577;39.766;2.720;2023-12-07T06:20:12;7.30;;;3.20;;
75016;SDS011;63577;39.766;2.720;2023-12-07T06:22:37;5.90;;;3.00;;
75016;SDS011;63577;39.766;2.720;2023-12-07T06:25:03;4.40;;;2.40;;
75016;SDS011;63577;39.766;2.720;2023-12-07T06:27:28;6.80;;;3.20;;
75016;SDS011;63577;39.766;2.720;2023-12-07T06:29:54;6.20;;;2.80;;
75016;SDS011;63577;39.766;2.720;2023-12-07T06:32:19;5.90;;;3.70;;
75016;SDS011;63577;39.766;2.720;2023-12-07T06:34:44;5.00;;;2.40;;
75016;SDS011;63577;39.766;2.720;2023-12-07T06:37:10;4.80;;;1.90;;
75016;SDS011;63577;39.766;2.720;2023-12-07T06:39:36;3.90;;;1.80;;
75016;SDS011;63577;39.766;2.720;2023-12-07T06:42:01;6.80;;;1.70;;
75016;SDS011;63577;39.766;2.720;2023-12-07T06:44:26;4.10;;;1.40;;
75016;SDS011;63577;39.766;2.720;2023-12-07T06:46:52;3.80;;;1.40;;
75016;SDS011;63577;39.766;2.720;2023-12-07T06:49:18;5.10;;;1.80;;
75016;SDS011;63577;39.766;2.720;2023-12-07T06:51:44;4.20;;;1.60;;
75016;SDS011;63577;39.766;2.720;2023-12-07T06:54:09;6.00;;;2.20;;
75016;SDS011;63577;39.766;2.720;2023-12-07T06:56:35;6.30;;;2.20;;
75016;SDS011;63577;39.766;2.720;2023-12-07T06:59:00;6.40;;;2.30;;
75016;SDS011;63577;39.766;2.720;2023-12-07T07:01:26;6.30;;;2.60;;
75016;SDS011;63577;39.766;2.720;2023-12-07T07:03:51;5.40;;;2.60;;
75016;SDS011;63577;39.766;2.720;2023-12-07T07:06:16;5.70;;;2.00;;
75016;SDS011;63577;39.766;2.720;2023-12-07T07:08:42;7.40;;;1.90;;
75016;SDS011;63577;39.766;2.720;2023-12-07T07:11:13;4.60;;;1.80;;
75016;SDS011;63577;39.766;2.720;2023-12-07T07:13:40;3.80;;;1.50;;
75016;SDS011;63577;39.766;2.720;2023-12-07T07:16:06;5.70;;;1.80;;
75016;SDS011;63577;39.766;2.720;2023-12-07T07:18:32;3.80;;;1.60;;
75016;SDS011;63577;39.766;2.720;2023-12-07T07:20:58;5.20;;;1.80;;
75016;SDS011;63577;39.766;2.720;2023-12-07T07:23:23;4.50;;;2.20;;
75016;SDS011;63577;39.766;2.720;2023-12-07T07:25:49;9.50;;;3.90;;
75016;SDS011;63577;39.766;2.720;2023-12-07T07:28:14;9.50;;;5.30;;
75016;SDS011;63577;39.766;2.720;2023-12-07T07:30:39;8.80;;;4.80;;
75016;SDS011;63577;39.766;2.720;2023-12-07T07:33:05;12.10;;;6.50;;
75016;SDS011;63577;39.766;2.720;2023-12-07T07:35:31;17.20;;;7.20;;
75016;SDS011;63577;39.766;2.720;2023-12-07T07:37:56;15.20;;;7.10;;
75016;SDS011;63577;39.766;2.720;2023-12-07T07:40:21;12.50;;;7.20;;
75016;SDS011;63577;39.766;2.720;2023-12-07T07:42:47;12.30;;;7.00;;
75016;SDS011;63577;39.766;2.720;2023-12-07T07:45:12;10.00;;;6.00;;
75016;SDS011;63577;39.766;2.720;2023-12-07T07:47:37;11.00;;;4.80;;
75016;SDS011;63577;39.766;2.720;2023-12-07T07:50:03;9.20;;;3.60;;
75016;SDS011;63577;39.766;2.720;2023-12-07T07:52:33;9.60;;;5.70;;
75016;SDS011;63577;39.766;2.720;2023-12-07T07:55:00;14.60;;;7.30;;
75016;SDS011;63577;39.766;2.720;2023-12-07T07:57:25;12.60;;;6.30;;
75016;SDS011;63577;39.766;2.720;2023-12-07T07:59:51;10.50;;;6.60;;
75016;SDS011;63577;39.766;2.720;2023-12-07T08:02:16;14.90;;;6.70;;
75016;SDS011;63577;39.766;2.720;2023-12-07T08:04:41;11.90;;;7.10;;
75016;SDS011;63577;39.766;2.720;2023-12-07T08:07:07;9.90;;;6.00;;
75016;SDS011;63577;39.766;2.720;2023-12-07T08:09:33;11.00;;;5.20;;
75016;SDS011;63577;39.766;2.720;2023-12-07T08:11:58;11.80;;;6.90;;
75016;SDS011;63577;39.766;2.720;2023-12-07T08:14:23;10.90;;;6.70;;
75016;SDS011;63577;39.766;2.720;2023-12-07T08:16:49;10.50;;;5.60;;
75016;SDS011;63577;39.766;2.720;2023-12-07T08:19:14;9.80;;;5.80;;
75016;SDS011;63577;39.766;2.720;2023-12-07T08:21:40;10.90;;;5.50;;
75016;SDS011;63577;39.766;2.720;2023-12-07T08:24:05;8.30;;;4.60;;
75016;SDS011;63577;39.766;2.720;2023-12-07T08:26:31;9.00;;;4.70;;
75016;SDS011;63577;39.766;2.720;2023-12-07T08:28:56;11.60;;;4.20;;
75016;SDS011;63577;39.766;2.720;2023-12-07T08:31:22;9.00;;;3.70;;
75016;SDS011;63577;39.766;2.720;2023-12-07T08:33:49;8.50;;;4.50;;
75016;SDS011;63577;39.766;2.720;2023-12-07T08:36:15;8.40;;;3.60;;
75016;SDS011;63577;39.766;2.720;2023-12-07T08:38:41;9.70;;;4.40;;
75016;SDS011;63577;39.766;2.720;2023-12-07T08:41:07;8.10;;;4.80;;
75016;SDS011;63577;39.766;2.720;2023-12-07T08:43:32;8.30;;;4.00;;
75016;SDS011;63577;39.766;2.720;2023-12-07T08:45:58;9.70;;;4.30;;
75016;SDS011;63577;39.766;2.720;2023-12-07T08:48:23;10.40;;;4.30;;
75016;SDS011;63577;39.766;2.720;2023-12-07T08:50:49;9.70;;;5.20;;
75016;SDS011;63577;39.766;2.720;2023-12-07T08:53:14;11.50;;;4.60;;
75016;SDS011;63577;39.766;2.720;2023-12-07T08:55:40;13.00;;;4.60;;
75016;SDS011;63577;39.766;2.720;2023-12-07T08:58:05;6.90;;;3.40;;
75016;SDS011;63577;39.766;2.720;2023-12-07T09:00:34;7.80;;;4.40;;
75016;SDS011;63577;39.766;2.720;2023-12-07T09:02:59;10.10;;;3.20;;
75016;SDS011;63577;39.766;2.720;2023-12-07T09:05:28;6.40;;;2.90;;
75016;SDS011;63577;39.766;2.720;2023-12-07T09:07:53;7.60;;;3.00;;
75016;SDS011;63577;39.766;2.720;2023-12-07T09:10:19;7.20;;;3.00;;
75016;SDS011;63577;39.766;2.720;2023-12-07T09:12:45;7.90;;;2.80;;
75016;SDS011;63577;39.766;2.720;2023-12-07T09:15:10;5.40;;;2.30;;
75016;SDS011;63577;39.766;2.720;2023-12-07T09:17:36;7.50;;;1.90;;
75016;SDS011;63577;39.766;2.720;2023-12-07T09:20:11;5.50;;;2.10;;
75016;SDS011;63577;39.766;2.720;2023-12-07T09:22:40;7.30;;;1.60;;
75016;SDS011;63577;39.766;2.720;2023-12-07T09:25:06;4.30;;;1.50;;
75016;SDS011;63577;39.766;2.720;2023-12-07T09:27:33;5.60;;;2.10;;
75016;SDS011;63577;39.766;2.720;2023-12-07T09:29:58;5.40;;;1.30;;
75016;SDS011;63577;39.766;2.720;2023-12-07T09:32:24;5.20;;;1.40;;
75016;SDS011;63577;39.766;2.720;2023-12-07T09:34:49;5.80;;;1.70;;
75016;SDS011;63577;39.766;2.720;2023-12-07T09:37:16;5.50;;;1.60;;
75016;SDS011;63577;39.766;2.720;2023-12-07T09:39:41;4.10;;;1.50;;
75016;SDS011;63577;39.766;2.720;2023-12-07T09:42:07;6.30;;;2.40;;
75016;SDS011;63577;39.766;2.720;2023-12-07T09:44:32;6.40;;;2.60;;
75016;SDS011;63577;39.766;2.720;2023-12-07T09:46:58;5.20;;;3.20;;
75016;SDS011;63577;39.766;2.720;2023-12-07T09:49:23;6.60;;;4.10;;
75016;SDS011;63577;39.766;2.720;2023-12-07T09:51:50;7.10;;;4.30;;
75016;SDS011;63577;39.766;2.720;2023-12-07T09:54:16;9.00;;;4.80;;
75016;SDS011;63577;39.766;2.720;2023-12-07T09:56:41;7.90;;;4.80;;
75016;SDS011;63577;39.766;2.720;2023-12-07T09:59:08;9.80;;;5.00;;
75016;SDS011;63577;39.766;2.720;2023-12-07T10:01:33;8.40;;;5.30;;
75016;SDS011;63577;39.766;2.720;2023-12-07T10:04:34;6.80;;;3.50;;
75016;SDS011;63577;39.766;2.720;2023-12-07T10:06:53;5.90;;;3.00;;
75016;SDS011;63577;39.766;2.720;2023-12-07T10:09:19;6.60;;;2.90;;
75016;SDS011;63577;39.766;2.720;2023-12-07T10:11:46;4.70;;;2.60;;
75016;SDS011;63577;39.766;2.720;2023-12-07T10:14:11;6.60;;;2.40;;
75016;SDS011;63577;39.766;2.720;2023-12-07T10:16:37;5.80;;;2.80;;
75016;SDS011;63577;39.766;2.720;2023-12-07T10:19:15;4.60;;;2.80;;
75016;SDS011;63577;39.766;2.720;2023-12-07T10:21:43;5.50;;;2.40;;
75016;SDS011;63577;39.766;2.720;2023-12-07T10:24:08;8.10;;;2.10;;
75016;SDS011;63577;39.766;2.720;2023-12-07T10:26:34;6.00;;;2.00;;
75016;SDS011;63577;39.766;2.720;2023-12-07T10:29:01;9.80;;;2.10;;
75016;SDS011;63577;39.766;2.720;2023-12-07T10:31:27;4.80;;;1.30;;
75016;SDS011;63577;39.766;2.720;2023-12-07T10:33:52;4.10;;;1.20;;
75016;SDS011;63577;39.766;2.720;2023-12-07T10:36:17;4.40;;;1.40;;
75016;SDS011;63577;39.766;2.720;2023-12-07T10:38:43;3.10;;;1.00;;
75016;SDS011;63577;39.766;2.720;2023-12-07T10:41:10;4.30;;;1.40;;
75016;SDS011;63577;39.766;2.720;2023-12-07T10:43:37;4.60;;;1.30;;
75016;SDS011;63577;39.766;2.720;2023-12-07T10:46:04;6.30;;;1.70;;
75016;SDS011;63577;39.766;2.720;2023-12-07T10:48:30;7.90;;;1.80;;
75016;SDS011;63577;39.766;2.720;2023-12-07T10:50:57;10.20;;;2.30;;
75016;SDS011;63577;39.766;2.720;2023-12-07T10:53:27;7.50;;;1.70;;
75016;SDS011;63577;39.766;2.720;2023-12-07T10:55:55;3.70;;;1.50;;
75016;SDS011;63577;39.766;2.720;2023-12-07T10:58:22;5.10;;;1.30;;
75016;SDS011;63577;39.766;2.720;2023-12-07T11:00:50;3.70;;;1.40;;
75016;SDS011;63577;39.766;2.720;2023-12-07T11:03:17;3.40;;;1.60;;
75016;SDS011;63577;39.766;2.720;2023-12-07T11:05:44;4.70;;;1.70;;
75016;SDS011;63577;39.766;2.720;2023-12-07T11:08:10;4.60;;;1.90;;
75016;SDS011;63577;39.766;2.720;2023-12-07T11:13:18;4.70;;;1.80;;
75016;SDS011;63577;39.766;2.720;2023-12-07T11:15:45;4.90;;;2.30;;
75016;SDS011;63577;39.766;2.720;2023-12-07T11:18:11;5.30;;;1.90;;
75016;SDS011;63577;39.766;2.720;2023-12-07T11:20:42;5.20;;;2.40;;
75016;SDS011;63577;39.766;2.720;2023-12-07T11:23:15;5.50;;;2.40;;
75016;SDS011;63577;39.766;2.720;2023-12-07T11:25:42;4.70;;;2.60;;
75016;SDS011;63577;39.766;2.720;2023-12-07T11:28:10;5.80;;;3.20;;
75016;SDS011;63577;39.766;2.720;2023-12-07T11:30:36;6.00;;;3.30;;
75016;SDS011;63577;39.766;2.720;2023-12-07T11:33:03;5.50;;;2.70;;
75016;SDS011;63577;39.766;2.720;2023-12-07T11:35:28;8.40;;;3.20;;
75016;SDS011;63577;39.766;2.720;2023-12-07T11:40:35;5.90;;;2.90;;
75016;SDS011;63577;39.766;2.720;2023-12-07T11:43:00;6.90;;;3.20;;
75016;SDS011;63577;39.766;2.720;2023-12-07T11:45:46;24.40;;;4.40;;
75016;SDS011;63577;39.766;2.720;2023-12-07T11:48:13;8.00;;;4.10;;
75016;SDS011;63577;39.766;2.720;2023-12-07T11:51:01;8.20;;;3.30;;
75016;SDS011;63577;39.766;2.720;2023-12-07T11:53:31;5.20;;;2.30;;
75016;SDS011;63577;39.766;2.720;2023-12-07T11:56:00;4.90;;;2.00;;
75016;SDS011;63577;39.766;2.720;2023-12-07T11:58:27;4.90;;;2.20;;
75016;SDS011;63577;39.766;2.720;2023-12-07T12:00:52;4.60;;;2.00;;
75016;SDS011;63577;39.766;2.720;2023-12-07T12:03:19;4.70;;;1.90;;
75016;SDS011;63577;39.766;2.720;2023-12-07T12:05:45;8.10;;;2.90;;
75016;SDS011;63577;39.766;2.720;2023-12-07T12:08:10;6.90;;;3.30;;
75016;SDS011;63577;39.766;2.720;2023-12-07T12:10:36;7.80;;;3.50;;
75016;SDS011;63577;39.766;2.720;2023-12-07T12:13:02;5.70;;;2.10;;
75016;SDS011;63577;39.766;2.720;2023-12-07T12:15:28;5.40;;;2.10;;
75016;SDS011;63577;39.766;2.720;2023-12-07T12:17:57;5.90;;;1.80;;
75016;SDS011;63577;39.766;2.720;2023-12-07T12:20:23;6.10;;;1.70;;
75016;SDS011;63577;39.766;2.720;2023-12-07T12:22:50;5.00;;;1.30;;
75016;SDS011;63577;39.766;2.720;2023-12-07T12:25:18;4.80;;;1.40;;
75016;SDS011;63577;39.766;2.720;2023-12-07T12:27:46;5.40;;;1.30;;
75016;SDS011;63577;39.766;2.720;2023-12-07T12:30:12;4.90;;;1.40;;
75016;SDS011;63577;39.766;2.720;2023-12-07T12:32:42;4.80;;;1.40;;
75016;SDS011;63577;39.766;2.720;2023-12-07T12:35:08;5.00;;;1.30;;
75016;SDS011;63577;39.766;2.720;2023-12-07T12:37:33;4.60;;;1.10;;
75016;SDS011;63577;39.766;2.720;2023-12-07T12:40:04;3.40;;;1.20;;
75016;SDS011;63577;39.766;2.720;2023-12-07T12:42:30;3.90;;;1.70;;
75016;SDS011;63577;39.766;2.720;2023-12-07T12:44:55;5.50;;;1.80;;
75016;SDS011;63577;39.766;2.720;2023-12-07T12:47:22;4.70;;;1.30;;
75016;SDS011;63577;39.766;2.720;2023-12-07T12:49:47;3.40;;;0.90;;
75016;SDS011;63577;39.766;2.720;2023-12-07T12:52:14;3.50;;;0.90;;
75016;SDS011;63577;39.766;2.720;2023-12-07T12:54:44;4.80;;;1.20;;
75016;SDS011;63577;39.766;2.720;2023-12-07T12:57:09;3.90;;;1.30;;
75016;SDS011;63577;39.766;2.720;2023-12-07T12:59:35;4.50;;;1.20;;
75016;SDS011;63577;39.766;2.720;2023-12-07T13:02:01;4.50;;;1.10;;
75016;SDS011;63577;39.766;2.720;2023-12-07T13:04:29;5.40;;;1.70;;
75016;SDS011;63577;39.766;2.720;2023-12-07T13:06:55;3.50;;;1.50;;
75016;SDS011;63577;39.766;2.720;2023-12-07T13:09:21;4.00;;;1.20;;
75016;SDS011;63577;39.766;2.720;2023-12-07T13:11:46;3.50;;;0.90;;
75016;SDS011;63577;39.766;2.720;2023-12-07T13:14:12;4.20;;;1.10;;
75016;SDS011;63577;39.766;2.720;2023-12-07T13:16:37;6.30;;;2.10;;
75016;SDS011;63577;39.766;2.720;2023-12-07T13:19:03;6.50;;;2.40;;
75016;SDS011;63577;39.766;2.720;2023-12-07T13:21:28;5.30;;;1.40;;
75016;SDS011;63577;39.766;2.720;2023-12-07T13:23:53;4.20;;;1.30;;
75016;SDS011;63577;39.766;2.720;2023-12-07T13:26:19;3.70;;;1.00;;
75016;SDS011;63577;39.766;2.720;2023-12-07T13:28:45;4.20;;;1.30;;
75016;SDS011;63577;39.766;2.720;2023-12-07T13:31:11;3.60;;;1.30;;
75016;SDS011;63577;39.766;2.720;2023-12-07T13:33:36;5.70;;;1.00;;
75016;SDS011;63577;39.766;2.720;2023-12-07T13:36:03;5.00;;;0.90;;
75016;SDS011;63577;39.766;2.720;2023-12-07T13:38:29;3.30;;;1.00;;
75016;SDS011;63577;39.766;2.720;2023-12-07T13:40:56;3.10;;;1.20;;
75016;SDS011;63577;39.766;2.720;2023-12-07T13:43:21;3.50;;;1.20;;
75016;SDS011;63577;39.766;2.720;2023-12-07T13:45:49;5.10;;;1.20;;
75016;SDS011;63577;39.766;2.720;2023-12-07T13:48:14;4.80;;;1.30;;
75016;SDS011;63577;39.766;2.720;2023-12-07T13:50:40;4.80;;;1.20;;
75016;SDS011;63577;39.766;2.720;2023-12-07T13:53:06;4.30;;;1.00;;
75016;SDS011;63577;39.766;2.720;2023-12-07T13:55:35;4.60;;;1.40;;
75016;SDS011;63577;39.766;2.720;2023-12-07T13:58:02;5.50;;;1.20;;
75016;SDS011;63577;39.766;2.720;2023-12-07T14:00:28;4.30;;;1.00;;
75016;SDS011;63577;39.766;2.720;2023-12-07T14:02:53;5.00;;;1.10;;
75016;SDS011;63577;39.766;2.720;2023-12-07T14:05:19;3.80;;;1.00;;
75016;SDS011;63577;39.766;2.720;2023-12-07T14:07:44;4.60;;;1.30;;
75016;SDS011;63577;39.766;2.720;2023-12-07T14:10:10;4.80;;;1.20;;
75016;SDS011;63577;39.766;2.720;2023-12-07T14:12:36;4.80;;;1.50;;
75016;SDS011;63577;39.766;2.720;2023-12-07T14:15:02;4.70;;;1.80;;
75016;SDS011;63577;39.766;2.720;2023-12-07T14:17:28;8.40;;;3.20;;
75016;SDS011;63577;39.766;2.720;2023-12-07T14:20:01;8.00;;;3.30;;
75016;SDS011;63577;39.766;2.720;2023-12-07T14:22:28;8.50;;;2.40;;
75016;SDS011;63577;39.766;2.720;2023-12-07T14:24:54;4.90;;;1.00;;
75016;SDS011;63577;39.766;2.720;2023-12-07T14:27:19;5.20;;;1.20;;
75016;SDS011;63577;39.766;2.720;2023-12-07T14:29:44;5.10;;;1.30;;
75016;SDS011;63577;39.766;2.720;2023-12-07T14:32:10;5.90;;;1.30;;
75016;SDS011;63577;39.766;2.720;2023-12-07T14:34:36;4.20;;;1.00;;
75016;SDS011;63577;39.766;2.720;2023-12-07T14:37:04;6.20;;;1.10;;
75016;SDS011;63577;39.766;2.720;2023-12-07T14:39:30;5.50;;;1.90;;
75016;SDS011;63577;39.766;2.720;2023-12-07T14:41:56;5.30;;;1.50;;
75016;SDS011;63577;39.766;2.720;2023-12-07T14:44:22;5.20;;;1.70;;